Time;durP1;ratioP1;P1;durP2;ratioP2;P2;SDS_P1;SDS_P2;PMS_P1;PMS_P2;Temp;Humidity;BMP_temperature;BMP_pressure;BME280_temperature;BME280_humidity;BME280_pressure;Samples;Min_cycle;Max_cycle;Signal;HPM_P1;HPM_P2
2022/12/01 00:02:22;;;;;;;60.85;31.55;;;2.10;1.00;;;;;;6195441;22;20214;-80
2022/12/01 00:04:52;;;;;;;56.30;32.42;;;2.10;1.00;;;;;;6255060;22;20213;-82
2022/12/01 00:07:21;;;;;;;67.40;33.00;;;2.10;1.00;;;;;;6258702;22;20212;-83
2022/12/01 00:12:57;;;;;;;61.05;31.00;;;2.20;1.00;;;;;;6120487;23;20214;-80
2022/12/01 00:15:33;;;;;;;52.15;30.33;;;2.20;1.00;;;;;;6167154;23;20968;-79
2022/12/01 00:18:05;;;;;;;62.38;31.92;;;2.10;1.00;;;;;;6207935;22;20240;-81
2022/12/01 00:20:38;;;;;;;59.67;31.70;;;2.10;1.00;;;;;;6200650;23;20243;-78
2022/12/01 00:23:08;;;;;;;57.38;31.58;;;2.00;1.00;;;;;;6172156;23;20973;-84
2022/12/01 00:25:35;;;;;;;61.42;33.05;;;1.90;1.00;;;;;;6227235;23;20222;-82
2022/12/01 00:28:02;;;;;;;65.25;32.53;;;1.90;1.00;;;;;;6226251;23;20257;-84
2022/12/01 00:30:32;;;;;;;70.00;35.85;;;2.00;1.00;;;;;;6188560;23;20211;-82
2022/12/01 00:33:00;;;;;;;64.75;32.95;;;1.80;1.00;;;;;;6202258;23;20227;-86
2022/12/01 00:35:28;;;;;;;65.35;34.78;;;1.90;1.00;;;;;;6192828;23;20207;-85
2022/12/01 00:37:55;;;;;;;70.90;34.58;;;2.10;1.00;;;;;;6183130;22;20298;-85
2022/12/01 00:40:23;;;;;;;63.55;34.50;;;2.20;1.00;;;;;;6227359;22;20226;-79
2022/12/01 00:42:52;;;;;;;65.15;34.35;;;2.10;1.00;;;;;;6212197;23;20250;-81
2022/12/01 00:45:31;;;;;;;65.65;35.60;;;2.20;1.00;;;;;;6187591;23;20222;-86
2022/12/01 00:48:23;;;;;;;70.55;36.17;;;2.20;1.00;;;;;;6175945;23;20222;-83
2022/12/01 00:50:55;;;;;;;67.22;35.15;;;2.10;1.00;;;;;;6197875;22;20207;-85
2022/12/01 00:53:24;;;;;;;71.18;37.35;;;2.10;1.00;;;;;;6194329;22;20212;-77
2022/12/01 00:55:55;;;;;;;67.93;34.08;;;2.00;1.00;;;;;;6175695;22;20201;-78
2022/12/01 00:58:29;;;;;;;63.95;32.60;;;1.90;1.00;;;;;;6202093;22;20690;-78
2022/12/01 01:01:04;;;;;;;68.25;35.88;;;1.90;1.00;;;;;;6170139;23;20208;-77
2022/12/01 01:03:34;;;;;;;73.68;34.65;;;1.90;1.00;;;;;;6190312;22;20260;-81
2022/12/01 01:06:07;;;;;;;68.90;37.35;;;1.90;1.00;;;;;;6177669;22;20205;-84
2022/12/01 01:08:35;;;;;;;65.18;32.90;;;1.90;1.00;;;;;;6188625;22;20214;-86
2022/12/01 01:11:11;;;;;;;68.53;33.80;;;2.10;1.00;;;;;;6188154;22;20220;-83
2022/12/01 01:13:53;;;;;;;70.50;35.20;;;2.00;1.00;;;;;;6202974;22;20304;-84
2022/12/01 01:16:21;;;;;;;72.93;34.08;;;2.00;1.00;;;;;;6237857;22;20213;-84
2022/12/01 01:18:53;;;;;;;63.40;34.90;;;2.10;1.00;;;;;;6241295;22;20210;-83
2022/12/01 01:21:25;;;;;;;72.35;35.13;;;2.00;1.00;;;;;;6207552;22;20215;-83
2022/12/01 01:23:54;;;;;;;62.88;32.65;;;2.00;1.00;;;;;;6251722;22;20243;-81
2022/12/01 01:26:22;;;;;;;68.50;34.25;;;2.00;1.00;;;;;;6250711;22;20213;-79
2022/12/01 01:28:52;;;;;;;66.93;35.58;;;2.00;1.00;;;;;;6250254;22;20218;-79
2022/12/01 01:31:22;;;;;;;69.93;32.85;;;2.00;1.00;;;;;;6253226;22;20977;-77
2022/12/01 01:33:49;;;;;;;71.25;35.78;;;2.00;1.00;;;;;;6238669;22;20254;-82
2022/12/01 01:36:18;;;;;;;69.55;36.53;;;2.10;1.00;;;;;;6230435;22;20202;-84
2022/12/01 01:38:49;;;;;;;73.10;34.20;;;2.10;1.00;;;;;;6256542;22;20215;-82
2022/12/01 01:41:17;;;;;;;79.30;38.75;;;2.00;1.00;;;;;;6257515;22;20225;-83
2022/12/01 01:43:45;;;;;;;72.57;35.28;;;2.10;1.00;;;;;;6250917;22;20244;-81
2022/12/01 01:46:15;;;;;;;64.13;33.40;;;2.10;1.00;;;;;;6250254;22;20994;-79
2022/12/01 01:48:48;;;;;;;71.45;37.03;;;2.00;1.00;;;;;;6236586;22;20250;-80
2022/12/01 01:51:25;;;;;;;72.15;34.22;;;2.00;1.00;;;;;;6233242;22;20222;-77
2022/12/01 01:54:14;;;;;;;83.28;37.78;;;2.00;1.00;;;;;;6251447;22;20214;-79
2022/12/01 01:56:44;;;;;;;72.60;35.67;;;2.10;1.00;;;;;;6252743;22;20268;-79
2022/12/01 01:59:13;;;;;;;68.50;35.00;;;2.00;1.00;;;;;;6254124;22;20224;-79
2022/12/01 02:01:43;;;;;;;81.50;37.30;;;2.00;1.00;;;;;;6249180;22;20201;-78
2022/12/01 02:04:15;;;;;;;72.18;37.22;;;2.00;1.00;;;;;;6255784;22;20902;-78
2022/12/01 02:06:42;;;;;;;69.72;35.80;;;2.00;1.00;;;;;;6255542;22;20222;-79
2022/12/01 02:09:14;;;;;;;77.07;36.72;;;2.00;1.00;;;;;;6252066;22;20462;-80
2022/12/01 02:12:10;;;;;;;69.45;35.95;;;1.90;1.00;;;;;;6239884;22;20219;-81
2022/12/01 02:15:04;;;;;;;69.40;34.28;;;1.90;1.00;;;;;;6201048;22;20220;-77
2022/12/01 02:17:42;;;;;;;73.10;34.63;;;1.80;1.00;;;;;;6220061;22;20218;-77
2022/12/01 02:20:42;;;;;;;65.55;34.72;;;1.80;1.00;;;;;;6221412;22;20339;-84
2022/12/01 02:23:45;;;;;;;69.28;32.13;;;2.00;1.00;;;;;;6214820;22;20222;-84
2022/12/01 02:26:32;;;;;;;64.40;33.75;;;2.00;1.00;;;;;;6212720;22;20220;-79
2022/12/01 02:29:36;;;;;;;65.90;34.58;;;2.00;1.00;;;;;;6251680;22;20720;-77
2022/12/01 02:32:15;;;;;;;67.85;34.65;;;2.00;1.00;;;;;;6242807;22;20218;-78
2022/12/01 02:34:52;;;;;;;59.92;31.92;;;2.00;1.00;;;;;;6254101;22;20249;-78
2022/12/01 02:37:38;;;;;;;69.68;35.20;;;2.00;1.00;;;;;;6259051;22;20211;-84
2022/12/01 02:40:16;;;;;;;69.07;34.05;;;1.90;1.00;;;;;;6259912;22;20767;-78
2022/12/01 02:42:58;;;;;;;76.38;35.75;;;1.70;1.00;;;;;;6256795;22;20751;-77
2022/12/01 02:45:36;;;;;;;72.60;34.40;;;1.70;1.00;;;;;;6260499;22;20217;-82
2022/12/01 02:48:12;;;;;;;70.25;37.10;;;1.60;1.00;;;;;;6257768;22;20210;-79
2022/12/01 02:50:40;;;;;;;76.13;35.97;;;1.50;1.00;;;;;;6257835;22;20299;-82
2022/12/01 02:53:14;;;;;;;76.97;35.25;;;1.50;1.00;;;;;;6255656;22;20210;-76
2022/12/01 02:55:58;;;;;;;72.18;36.33;;;1.50;1.00;;;;;;6258826;22;20278;-84
2022/12/01 02:58:25;;;;;;;86.53;37.15;;;1.40;1.00;;;;;;6261490;22;20211;-82
2022/12/01 03:01:14;;;;;;;83.38;38.50;;;1.40;1.00;;;;;;6259178;22;20207;-83
2022/12/01 03:04:12;;;;;;;77.10;38.67;;;1.40;1.00;;;;;;6247988;22;20217;-84
2022/12/01 03:06:53;;;;;;;76.45;37.83;;;1.40;1.00;;;;;;6254187;22;20228;-83
2022/12/01 03:09:32;;;;;;;75.32;37.88;;;1.40;1.00;;;;;;6232259;22;20693;-82
2022/12/01 03:12:13;;;;;;;86.82;37.83;;;1.40;1.00;;;;;;6254490;22;25674;-82
2022/12/01 03:14:53;;;;;;;82.45;37.65;;;1.50;1.00;;;;;;6258627;22;20269;-82
2022/12/01 03:17:30;;;;;;;71.43;37.70;;;1.50;1.00;;;;;;6258523;22;20210;-83
2022/12/01 03:20:14;;;;;;;78.07;37.70;;;1.50;1.00;;;;;;6256826;22;20213;-83
2022/12/01 03:22:52;;;;;;;84.18;39.78;;;1.40;1.00;;;;;;6258870;22;20242;-80
2022/12/01 03:25:22;;;;;;;82.45;37.67;;;1.50;1.00;;;;;;6258601;22;20267;-83
2022/12/01 03:27:58;;;;;;;78.90;38.22;;;1.50;1.00;;;;;;6256797;22;20261;-82
2022/12/01 03:30:32;;;;;;;75.50;38.28;;;1.60;1.00;;;;;;6260558;22;21022;-82
2022/12/01 03:33:04;;;;;;;75.68;38.22;;;1.50;1.00;;;;;;6261582;22;20222;-83
2022/12/01 03:35:40;;;;;;;88.30;38.70;;;1.40;1.00;;;;;;6218780;22;20291;-78
2022/12/01 03:38:17;;;;;;;82.05;41.25;;;1.50;1.00;;;;;;6260527;22;20213;-76
2022/12/01 03:40:51;;;;;;;83.60;38.15;;;1.50;1.00;;;;;;6255269;22;20578;-77
2022/12/01 03:43:21;;;;;;;79.25;38.95;;;1.60;1.00;;;;;;6234041;22;20225;-83
2022/12/01 03:45:59;;;;;;;95.38;43.05;;;1.50;1.00;;;;;;6241573;22;20214;-76
2022/12/01 03:48:32;;;;;;;78.03;37.30;;;1.40;1.00;;;;;;6256689;22;20895;-77
2022/12/01 03:51:12;;;;;;;79.78;39.05;;;1.40;1.00;;;;;;6257039;22;20213;-76
2022/12/01 03:53:52;;;;;;;78.45;37.65;;;1.50;1.00;;;;;;6258690;22;21159;-80
2022/12/01 03:56:25;;;;;;;79.20;39.88;;;1.50;1.00;;;;;;6257811;22;20213;-82
2022/12/01 03:58:57;;;;;;;83.40;41.45;;;1.60;1.00;;;;;;6260990;22;20219;-78
2022/12/01 04:01:25;;;;;;;81.50;39.60;;;1.70;1.00;;;;;;6257043;22;20684;-80
2022/12/01 04:03:53;;;;;;;82.00;38.45;;;1.60;1.00;;;;;;6262259;22;20221;-83
2022/12/01 04:06:23;;;;;;;90.72;43.75;;;1.50;1.00;;;;;;6257238;22;20224;-77
2022/12/01 04:08:53;;;;;;;80.35;40.17;;;1.40;1.00;;;;;;6257607;22;20220;-83
2022/12/01 04:14:06;;;;;;;92.25;43.65;;;1.30;1.00;;;;;;6254126;22;20215;-78
2022/12/01 04:16:35;;;;;;;88.72;39.92;;;1.30;1.00;;;;;;6258120;22;20267;-79
2022/12/01 04:19:02;;;;;;;82.53;39.35;;;1.40;1.00;;;;;;6257555;22;20248;-83
2022/12/01 04:21:34;;;;;;;79.00;40.53;;;1.50;1.00;;;;;;6259196;22;20823;-78
2022/12/01 04:24:02;;;;;;;81.60;39.70;;;1.60;1.00;;;;;;6256754;22;20216;-81
2022/12/01 04:26:37;;;;;;;82.22;40.35;;;1.60;1.00;;;;;;6261871;22;20230;-82
2022/12/01 04:29:10;;;;;;;81.75;38.88;;;1.70;1.00;;;;;;6258105;22;20698;-84
2022/12/01 04:31:38;;;;;;;77.47;37.30;;;1.70;1.00;;;;;;6261792;22;20212;-82
2022/12/01 04:34:14;;;;;;;83.93;40.85;;;1.70;1.00;;;;;;6260363;22;20221;-83
2022/12/01 04:36:42;;;;;;;81.72;39.45;;;1.60;1.00;;;;;;6258044;22;20282;-82
2022/12/01 04:39:13;;;;;;;84.35;42.45;;;1.50;1.00;;;;;;6259286;22;20237;-85
2022/12/01 04:41:43;;;;;;;84.80;39.65;;;1.50;1.00;;;;;;6260444;22;20225;-83
2022/12/01 04:44:18;;;;;;;84.75;42.03;;;1.50;1.00;;;;;;6257072;22;20218;-83
2022/12/01 04:46:46;;;;;;;88.30;38.92;;;1.60;1.00;;;;;;6260009;22;20267;-82
2022/12/01 04:49:13;;;;;;;77.30;40.67;;;1.50;1.00;;;;;;6259395;22;20225;-83
2022/12/01 04:51:42;;;;;;;84.43;42.72;;;1.50;1.00;;;;;;6257036;22;20263;-81
2022/12/01 04:54:15;;;;;;;80.60;39.53;;;1.60;1.00;;;;;;6259252;22;20208;-84
2022/12/01 04:56:44;;;;;;;76.13;38.53;;;1.60;1.00;;;;;;6259052;22;20232;-83
2022/12/01 04:59:13;;;;;;;75.75;39.42;;;1.60;1.00;;;;;;6262409;22;20213;-83
2022/12/01 05:01:43;;;;;;;76.45;38.38;;;1.60;1.00;;;;;;6253625;22;20211;-82
2022/12/01 05:04:13;;;;;;;81.80;39.97;;;1.50;1.00;;;;;;6252024;22;21561;-82
2022/12/01 05:06:42;;;;;;;84.00;41.20;;;1.60;1.00;;;;;;6250931;22;20219;-81
2022/12/01 05:09:14;;;;;;;79.80;41.00;;;1.70;1.00;;;;;;6249088;22;20219;-83
2022/12/01 05:11:41;;;;;;;77.78;41.60;;;1.70;1.00;;;;;;6252385;22;20240;-83
2022/12/01 05:14:08;;;;;;;74.72;41.45;;;1.60;1.00;;;;;;6257976;22;20213;-83
2022/12/01 05:16:36;;;;;;;81.80;39.88;;;1.60;1.00;;;;;;6255869;22;20226;-85
2022/12/01 05:21:52;;;;;;;77.60;38.80;;;1.40;1.00;;;;;;6243696;22;20205;-85
2022/12/01 05:24:22;;;;;;;73.32;40.08;;;1.50;1.00;;;;;;6220503;22;20209;-86
2022/12/01 05:26:51;;;;;;;74.65;39.20;;;1.50;1.00;;;;;;6256599;22;20228;-84
2022/12/01 05:29:18;;;;;;;76.38;40.75;;;1.50;1.00;;;;;;6261637;22;20216;-84
2022/12/01 05:31:53;;;;;;;79.07;38.75;;;1.50;1.00;;;;;;6259157;22;20321;-79
2022/12/01 05:34:20;;;;;;;73.70;38.70;;;1.60;1.00;;;;;;6255989;22;20218;-78
2022/12/01 05:36:51;;;;;;;79.43;39.92;;;1.60;1.00;;;;;;6256269;22;20221;-82
2022/12/01 05:39:18;;;;;;;79.43;38.63;;;1.50;1.00;;;;;;6255234;22;20221;-76
2022/12/01 05:41:55;;;;;;;80.78;39.67;;;1.30;1.00;;;;;;6259173;22;20216;-77
2022/12/01 05:44:22;;;;;;;75.65;38.47;;;1.30;1.00;;;;;;6258060;22;21016;-83
2022/12/01 05:46:51;;;;;;;78.35;39.83;;;1.40;1.00;;;;;;6260757;22;20203;-77
2022/12/01 05:49:18;;;;;;;75.28;38.97;;;1.30;1.00;;;;;;6258377;22;20918;-78
2022/12/01 05:51:50;;;;;;;72.30;39.85;;;1.20;1.00;;;;;;6256559;22;20213;-77
2022/12/01 05:54:18;;;;;;;76.22;38.45;;;1.30;1.00;;;;;;6255535;22;20218;-76
2022/12/01 05:56:50;;;;;;;77.43;40.15;;;1.40;1.00;;;;;;6253446;22;20239;-78
2022/12/01 05:59:21;;;;;;;76.88;40.30;;;1.40;1.00;;;;;;6255745;22;20216;-78
2022/12/01 06:01:50;;;;;;;75.72;40.75;;;1.50;1.00;;;;;;6260025;22;20233;-80
2022/12/01 06:04:17;;;;;;;72.75;40.30;;;1.50;1.00;;;;;;6224389;22;20289;-82
2022/12/01 06:06:47;;;;;;;69.97;37.83;;;1.50;1.00;;;;;;6251394;22;20233;-82
2022/12/01 06:09:14;;;;;;;81.65;41.78;;;1.50;1.00;;;;;;6255973;22;20239;-82
2022/12/01 06:11:50;;;;;;;79.72;41.30;;;1.40;1.00;;;;;;6255441;22;20277;-78
2022/12/01 06:14:17;;;;;;;82.93;42.70;;;1.40;1.00;;;;;;6256703;22;20243;-85
2022/12/01 06:16:50;;;;;;;75.90;40.60;;;1.50;1.00;;;;;;6257246;22;20679;-84
2022/12/01 06:19:20;;;;;;;70.13;39.42;;;1.40;1.00;;;;;;6257084;22;20194;-81
2022/12/01 06:21:58;;;;;;;83.22;42.47;;;1.40;1.00;;;;;;6261118;22;20250;-80
2022/12/01 06:24:41;;;;;;;75.80;39.30;;;1.30;1.00;;;;;;6257674;22;20226;-80
2022/12/01 06:27:11;;;;;;;83.57;39.30;;;1.40;1.00;;;;;;6256005;22;20248;-79
2022/12/01 06:29:40;;;;;;;83.15;42.65;;;1.50;1.00;;;;;;6256488;22;20209;-78
2022/12/01 06:32:10;;;;;;;80.50;41.13;;;1.40;1.00;;;;;;6250318;22;20212;-82
2022/12/01 06:34:37;;;;;;;81.65;46.00;;;1.50;1.00;;;;;;6252506;22;20217;-81
2022/12/01 06:37:14;;;;;;;77.40;44.50;;;1.60;1.00;;;;;;6242332;22;20273;-83
2022/12/01 06:39:42;;;;;;;81.55;41.00;;;1.60;1.00;;;;;;6237602;22;20308;-82
2022/12/01 06:42:12;;;;;;;81.00;42.47;;;1.70;1.00;;;;;;6263302;22;20225;-82
2022/12/01 06:44:43;;;;;;;78.00;40.40;;;1.70;1.00;;;;;;6265177;22;20210;-84
2022/12/01 06:47:18;;;;;;;77.25;41.53;;;1.80;1.00;;;;;;6228520;22;20244;-84
2022/12/01 06:53:01;;;;;;;75.15;42.58;;;1.80;1.00;;;;;;6206670;22;20719;-77
2022/12/01 06:55:30;;;;;;;85.53;44.97;;;1.90;1.00;;;;;;6248952;22;20224;-78
2022/12/01 06:58:01;;;;;;;85.32;44.72;;;1.90;1.00;;;;;;6253685;22;20217;-77
2022/12/01 07:00:28;;;;;;;77.40;41.95;;;1.90;1.00;;;;;;6253218;22;20634;-78
2022/12/01 07:02:55;;;;;;;87.28;44.10;;;1.90;1.00;;;;;;6251887;22;20223;-77
2022/12/01 07:05:23;;;;;;;87.95;45.58;;;1.90;1.00;;;;;;6255161;22;20608;-77
2022/12/01 07:07:51;;;;;;;88.00;43.78;;;2.00;1.00;;;;;;6252659;22;20675;-76
2022/12/01 07:10:18;;;;;;;87.47;45.42;;;1.90;1.00;;;;;;6253280;22;20321;-77
2022/12/01 07:12:46;;;;;;;97.95;48.08;;;1.90;1.00;;;;;;6245300;22;21012;-77
2022/12/01 07:15:14;;;;;;;94.80;48.70;;;1.90;1.00;;;;;;6254111;22;20693;-78
2022/12/01 07:17:41;;;;;;;99.68;48.33;;;1.90;1.00;;;;;;6253043;22;20247;-78
2022/12/01 07:20:10;;;;;;;98.47;47.67;;;1.90;1.00;;;;;;6253064;22;20218;-77
2022/12/01 07:22:37;;;;;;;102.55;49.88;;;1.90;1.00;;;;;;6253776;22;20627;-76
2022/12/01 07:25:09;;;;;;;91.18;48.20;;;1.90;1.00;;;;;;6251918;22;20218;-78
2022/12/01 07:27:36;;;;;;;94.75;49.35;;;1.90;1.00;;;;;;6213846;22;20204;-78
2022/12/01 07:30:03;;;;;;;95.85;49.97;;;1.90;1.00;;;;;;6222773;22;20230;-78
2022/12/01 07:32:31;;;;;;;105.72;51.15;;;1.90;1.00;;;;;;6252846;22;20612;-76
2022/12/01 07:34:58;;;;;;;94.03;47.60;;;1.90;1.00;;;;;;6251605;22;20224;-79
2022/12/01 07:37:26;;;;;;;100.07;47.90;;;2.00;1.00;;;;;;6251375;22;20944;-78
2022/12/01 07:39:53;;;;;;;94.75;49.30;;;2.00;1.00;;;;;;6252486;22;20213;-77
2022/12/01 07:42:22;;;;;;;104.15;48.95;;;2.00;1.00;;;;;;6255090;22;20214;-77
2022/12/01 07:44:49;;;;;;;100.18;49.40;;;2.00;1.00;;;;;;6251093;22;20371;-78
2022/12/01 07:47:16;;;;;;;113.47;51.28;;;2.10;1.00;;;;;;6250899;22;20373;-78
2022/12/01 07:49:44;;;;;;;109.95;53.55;;;2.10;1.00;;;;;;6239472;22;20286;-78
2022/12/01 07:52:11;;;;;;;116.50;52.08;;;2.00;1.00;;;;;;6247787;22;20224;-78
2022/12/01 07:54:42;;;;;;;103.65;50.60;;;1.90;1.00;;;;;;6253625;22;20244;-77
2022/12/01 07:57:13;;;;;;;101.97;50.83;;;1.90;1.00;;;;;;6254024;22;20233;-77
2022/12/01 07:59:42;;;;;;;108.68;53.95;;;1.90;1.00;;;;;;6241911;22;20278;-78
2022/12/01 08:02:12;;;;;;;115.82;54.08;;;2.00;1.00;;;;;;6239221;22;20210;-77
2022/12/01 08:05:01;;;;;;;99.57;52.45;;;2.00;1.00;;;;;;6238564;22;20248;-77
2022/12/01 08:07:28;;;;;;;105.75;49.58;;;2.00;1.00;;;;;;6239098;22;20963;-77
2022/12/01 08:10:03;;;;;;;103.28;49.53;;;1.90;1.00;;;;;;6252423;22;20221;-78
2022/12/01 08:12:30;;;;;;;103.55;49.20;;;1.90;1.00;;;;;;6259046;22;20948;-78
2022/12/01 08:15:00;;;;;;;101.35;48.33;;;1.90;1.00;;;;;;6247216;22;20216;-79
2022/12/01 08:17:31;;;;;;;94.97;48.25;;;1.90;1.00;;;;;;6257854;22;20213;-78
2022/12/01 08:20:01;;;;;;;96.00;47.92;;;1.90;1.00;;;;;;6241110;22;20205;-80
2022/12/01 08:22:30;;;;;;;93.15;46.88;;;2.00;1.00;;;;;;6230738;22;20321;-77
2022/12/01 08:24:59;;;;;;;96.15;49.67;;;2.10;1.00;;;;;;6250396;22;20469;-80
2022/12/01 08:27:26;;;;;;;104.10;51.00;;;2.10;1.00;;;;;;6251820;22;20217;-77
2022/12/01 08:29:53;;;;;;;105.13;51.35;;;2.00;1.00;;;;;;6249647;22;20213;-76
2022/12/01 08:32:30;;;;;;;119.72;53.40;;;2.00;1.00;;;;;;6251156;22;20278;-79
2022/12/01 08:35:01;;;;;;;104.40;54.08;;;2.10;1.00;;;;;;6251542;22;20971;-79
2022/12/01 08:37:33;;;;;;;101.32;50.35;;;2.10;1.00;;;;;;6254834;22;20242;-79
2022/12/01 08:40:01;;;;;;;100.80;51.15;;;2.10;1.00;;;;;;6252775;22;20353;-76
2022/12/01 08:42:28;;;;;;;96.70;48.25;;;2.10;1.00;;;;;;6252093;22;20860;-77
2022/12/01 08:44:55;;;;;;;102.15;49.47;;;2.10;1.00;;;;;;6251901;22;20245;-78
2022/12/01 08:47:22;;;;;;;105.45;53.30;;;2.10;1.00;;;;;;6229259;22;20242;-77
2022/12/01 08:49:49;;;;;;;116.80;51.88;;;2.10;1.00;;;;;;6220890;22;20211;-78
2022/12/01 08:52:19;;;;;;;105.60;50.38;;;2.00;1.00;;;;;;6254078;22;20210;-77
2022/12/01 08:54:46;;;;;;;97.78;51.15;;;2.00;1.00;;;;;;6253453;22;20224;-77
2022/12/01 08:57:13;;;;;;;108.43;50.15;;;2.00;1.00;;;;;;6253367;22;20225;-79
2022/12/01 08:59:40;;;;;;;110.45;53.33;;;2.10;1.00;;;;;;6251569;22;21022;-80
2022/12/01 09:02:10;;;;;;;99.57;47.88;;;2.00;1.00;;;;;;6253516;22;20211;-79
2022/12/01 09:04:40;;;;;;;106.60;49.60;;;2.00;1.00;;;;;;6257794;22;20202;-78
2022/12/01 09:07:13;;;;;;;108.18;49.50;;;2.00;1.00;;;;;;6254677;22;20273;-81
2022/12/01 09:09:45;;;;;;;101.50;49.30;;;2.00;1.00;;;;;;6258024;22;20285;-82
2022/12/01 09:12:13;;;;;;;111.15;52.03;;;2.00;1.00;;;;;;6260548;22;20215;-82
2022/12/01 09:14:44;;;;;;;106.63;52.70;;;2.10;1.00;;;;;;6258068;22;20218;-81
2022/12/01 09:17:11;;;;;;;107.78;54.78;;;2.10;1.00;;;;;;6255583;22;20726;-80
2022/12/01 09:19:40;;;;;;;105.93;52.30;;;2.20;1.00;;;;;;6251091;22;20214;-82
2022/12/01 09:22:07;;;;;;;104.80;54.88;;;2.20;1.00;;;;;;6236187;22;20277;-81
2022/12/01 09:24:40;;;;;;;108.60;53.38;;;2.10;1.00;;;;;;6240956;22;20222;-82
2022/12/01 09:27:12;;;;;;;104.90;53.58;;;2.10;1.00;;;;;;6255551;22;20929;-80
2022/12/01 09:29:48;;;;;;;110.10;52.88;;;2.20;1.00;;;;;;6259009;22;20210;-81
2022/12/01 09:32:20;;;;;;;102.07;49.85;;;2.20;1.00;;;;;;6259689;22;20216;-79
2022/12/01 09:34:47;;;;;;;103.70;50.45;;;2.30;1.00;;;;;;6253412;22;20217;-78
2022/12/01 09:37:19;;;;;;;96.85;49.80;;;2.30;1.00;;;;;;6255553;22;20286;-79
2022/12/01 09:39:46;;;;;;;98.50;47.00;;;2.40;1.00;;;;;;6256758;22;20296;-77
2022/12/01 09:42:26;;;;;;;100.78;50.22;;;2.40;1.00;;;;;;6261330;22;20241;-83
2022/12/01 09:45:03;;;;;;;95.03;45.97;;;2.50;1.00;;;;;;6217552;22;20317;-84
2022/12/01 09:47:43;;;;;;;;;;;;;;;;;;;;;
2022/12/01 09:50:20;;;;;;;86.07;47.00;;;2.50;1.00;;;;;;6253566;22;51662;-79
2022/12/01 09:52:52;;;;;;;81.40;43.70;;;2.50;1.00;;;;;;6218036;22;21013;-79
2022/12/01 09:55:23;;;;;;;83.55;44.33;;;2.50;1.00;;;;;;6259729;22;20196;-78
2022/12/01 09:57:59;;;;;;;91.22;45.90;;;2.50;1.00;;;;;;6259007;22;20214;-78
2022/12/01 10:00:31;;;;;;;87.72;46.15;;;2.40;1.00;;;;;;6258503;22;20292;-79
2022/12/01 10:03:11;;;;;;;85.97;45.78;;;2.40;1.00;;;;;;6255499;22;20207;-77
2022/12/01 10:05:45;;;;;;;85.15;44.13;;;2.50;1.00;;;;;;6262136;22;20191;-82
2022/12/01 10:08:19;;;;;;;88.45;45.03;;;2.60;1.00;;;;;;6258137;22;20213;-78
2022/12/01 10:10:48;;;;;;;81.40;44.08;;;2.50;1.00;;;;;;6254094;22;20213;-78
2022/12/01 10:13:24;;;;;;;83.72;47.75;;;2.50;1.00;;;;;;6257615;22;20216;-78
2022/12/01 10:16:02;;;;;;;80.00;42.35;;;2.50;1.00;;;;;;6257932;22;20237;-81
2022/12/01 10:18:44;;;;;;;76.75;44.10;;;2.60;1.00;;;;;;6260357;22;20224;-81
2022/12/01 10:21:26;;;;;;;87.60;47.00;;;2.60;1.00;;;;;;6260012;22;20266;-79
2022/12/01 10:24:19;;;;;;;80.13;43.20;;;2.60;1.00;;;;;;6260060;22;20841;-80
2022/12/01 10:27:00;;;;;;;78.03;42.30;;;2.60;1.00;;;;;;6260706;22;20576;-83
2022/12/01 10:29:41;;;;;;;77.97;39.88;;;2.70;1.00;;;;;;6261366;22;20248;-79
2022/12/01 10:32:17;;;;;;;80.03;42.95;;;2.80;1.00;;;;;;6253275;22;20219;-79
2022/12/01 10:34:50;;;;;;;74.72;41.22;;;2.80;1.00;;;;;;6263114;22;20200;-80
2022/12/01 10:37:20;;;;;;;69.10;41.08;;;2.80;1.00;;;;;;6259177;22;20967;-81
2022/12/01 10:39:53;;;;;;;75.25;39.75;;;2.80;1.00;;;;;;6258778;22;20241;-79
2022/12/01 10:42:34;;;;;;;75.95;43.75;;;2.90;1.00;;;;;;6259317;22;20210;-80
2022/12/01 10:45:09;;;;;;;73.20;40.90;;;2.90;1.00;;;;;;6258022;22;20223;-77
2022/12/01 10:47:37;;;;;;;73.93;43.15;;;2.70;1.00;;;;;;6258919;22;20226;-80
2022/12/01 10:50:11;;;;;;;72.13;41.65;;;2.60;1.00;;;;;;6258697;22;20217;-78
2022/12/01 10:52:41;;;;;;;73.95;40.35;;;2.70;1.00;;;;;;6258217;22;20773;-79
2022/12/01 10:55:30;;;;;;;70.53;41.90;;;2.70;1.00;;;;;;6258360;22;20201;-81
2022/12/01 10:58:00;;;;;;;74.60;40.80;;;2.70;1.00;;;;;;6259202;22;20228;-80
2022/12/01 11:00:36;;;;;;;75.50;40.58;;;2.70;1.00;;;;;;6224053;22;20238;-81
2022/12/01 11:03:21;;;;;;;76.72;44.30;;;2.70;1.00;;;;;;6257761;22;20215;-77
2022/12/01 11:05:56;;;;;;;76.00;41.10;;;2.60;1.00;;;;;;6253347;22;20219;-80
2022/12/01 11:08:28;;;;;;;76.90;42.70;;;2.60;1.00;;;;;;6229394;22;20216;-80
2022/12/01 11:11:17;;;;;;;72.85;41.85;;;2.60;1.00;;;;;;6241586;22;20242;-79
2022/12/01 11:13:47;;;;;;;75.05;44.25;;;2.70;1.00;;;;;;6209341;22;20240;-82
2022/12/01 11:16:59;;;;;;;70.75;42.97;;;2.70;1.00;;;;;;6219274;22;20215;-77
2022/12/01 11:19:31;;;;;;;63.47;38.15;;;2.70;1.00;;;;;;6261743;22;20215;-80
2022/12/01 11:22:04;;;;;;;74.57;39.67;;;2.60;1.00;;;;;;6237264;22;20225;-81
2022/12/01 11:24:55;;;;;;;75.60;43.20;;;2.60;1.00;;;;;;6236685;22;20217;-80
2022/12/01 11:27:37;;;;;;;71.72;41.55;;;2.60;1.00;;;;;;6259488;22;20219;-77
2022/12/01 11:30:29;;;;;;;68.22;40.38;;;2.70;1.00;;;;;;6257652;22;20202;-77
2022/12/01 11:33:04;;;;;;;73.65;40.95;;;2.70;1.00;;;;;;6211587;22;20293;-78
2022/12/01 11:35:36;;;;;;;75.07;42.22;;;2.60;1.00;;;;;;6255682;22;20270;-78
2022/12/01 11:38:06;;;;;;;75.13;41.70;;;2.60;1.00;;;;;;6258774;22;20286;-77
2022/12/01 11:40:47;;;;;;;72.80;40.50;;;2.60;1.00;;;;;;6259362;22;20268;-76
2022/12/01 11:43:26;;;;;;;69.40;39.78;;;2.70;1.00;;;;;;6258049;22;20218;-82
2022/12/01 11:46:00;;;;;;;68.22;41.17;;;2.60;1.00;;;;;;6255249;22;20337;-78
2022/12/01 11:48:35;;;;;;;71.68;40.92;;;2.70;1.00;;;;;;6257028;22;20685;-78
2022/12/01 11:51:06;;;;;;;65.53;40.03;;;2.70;1.00;;;;;;6256768;22;20224;-76
2022/12/01 11:53:38;;;;;;;62.28;38.53;;;2.60;1.00;;;;;;6257506;22;20212;-77
2022/12/01 11:56:22;;;;;;;66.03;38.15;;;2.60;1.00;;;;;;6253515;22;20217;-77
2022/12/01 11:58:51;;;;;;;64.50;36.42;;;2.70;1.00;;;;;;6254846;22;20278;-77
2022/12/01 12:01:35;;;;;;;63.22;38.13;;;2.60;1.00;;;;;;6258850;22;20217;-78
2022/12/01 12:04:16;;;;;;;63.63;38.28;;;2.60;1.00;;;;;;6260481;22;20246;-78
2022/12/01 12:06:48;;;;;;;65.05;38.60;;;2.70;1.00;;;;;;6258590;22;21025;-79
2022/12/01 12:09:44;;;;;;;62.40;38.60;;;2.70;1.00;;;;;;6260242;22;20225;-80
2022/12/01 12:12:40;;;;;;;57.47;36.63;;;2.80;1.00;;;;;;6256486;22;20879;-79
2022/12/01 12:15:22;;;;;;;61.15;36.90;;;2.80;1.00;;;;;;6226356;23;20210;-79
2022/12/01 12:18:04;;;;;;;60.33;34.10;;;2.90;1.00;;;;;;6227116;23;20216;-78
2022/12/01 12:20:59;;;;;;;63.22;35.40;;;3.00;1.00;;;;;;6232541;23;20310;-83
2022/12/01 12:23:47;;;;;;;52.30;33.22;;;2.90;1.00;;;;;;6233937;23;20206;-79
2022/12/01 12:29:36;;;;;;;59.17;35.72;;;2.90;1.00;;;;;;6227019;23;20223;-80
2022/12/01 12:32:48;;;;;;;50.58;33.22;;;2.80;1.00;;;;;;6192323;23;20210;-80
2022/12/01 12:35:29;;;;;;;54.10;33.03;;;2.80;1.00;;;;;;6232524;23;20263;-78
2022/12/01 12:41:28;;;;;;;56.65;34.45;;;2.90;1.00;;;;;;6212874;23;20212;-77
2022/12/01 12:44:18;;;;;;;57.83;34.45;;;2.90;1.00;;;;;;6231852;23;20308;-82
2022/12/01 12:47:05;;;;;;;57.75;34.55;;;2.80;1.00;;;;;;6232005;23;20225;-80
2022/12/01 12:49:46;;;;;;;61.00;37.20;;;2.90;1.00;;;;;;6233441;23;20213;-79
2022/12/01 12:52:28;;;;;;;52.67;33.38;;;2.90;1.00;;;;;;6232630;23;20193;-79
2022/12/01 12:55:06;;;;;;;52.92;34.13;;;2.90;1.00;;;;;;6232122;23;20241;-78
2022/12/01 12:57:48;;;;;;;54.28;32.13;;;2.80;1.00;;;;;;6231937;23;20257;-79
2022/12/01 13:00:35;;;;;;;57.55;33.42;;;2.80;1.00;;;;;;6228090;23;20245;-81
2022/12/01 13:03:26;;;;;;;56.13;34.88;;;2.80;1.00;;;;;;6230095;23;20219;-78
2022/12/01 13:06:08;;;;;;;57.92;33.78;;;2.80;1.00;;;;;;6232311;23;20206;-78
2022/12/01 13:08:57;;;;;;;59.95;33.63;;;2.90;1.00;;;;;;6233095;23;20204;-79
2022/12/01 13:11:37;;;;;;;72.03;42.35;;;2.90;1.00;;;;;;6216312;23;20228;-78
2022/12/01 13:14:17;;;;;;;58.88;33.95;;;2.90;1.00;;;;;;6247012;22;20213;-80
2022/12/01 13:16:54;;;;;;;55.70;35.78;;;3.00;1.00;;;;;;6263616;22;20237;-80
2022/12/01 13:19:27;;;;;;;57.22;35.15;;;3.00;1.00;;;;;;6265249;22;20218;-81
2022/12/01 13:21:59;;;;;;;53.40;33.92;;;3.00;1.00;;;;;;6264897;22;20227;-82
2022/12/01 13:24:30;;;;;;;58.90;34.97;;;3.00;1.00;;;;;;6264518;22;20218;-81
2022/12/01 13:27:08;;;;;;;56.58;36.40;;;3.00;1.00;;;;;;6255948;22;21065;-82
2022/12/01 13:29:41;;;;;;;55.72;32.35;;;3.00;1.00;;;;;;6265316;22;20226;-83
2022/12/01 13:32:27;;;;;;;61.53;33.85;;;2.90;1.00;;;;;;6264074;22;20674;-79
2022/12/01 13:34:54;;;;;;;53.58;32.35;;;2.90;1.00;;;;;;6256615;22;20217;-80
2022/12/01 13:37:32;;;;;;;51.13;31.52;;;3.00;1.00;;;;;;6256609;22;20216;-80
2022/12/01 13:40:21;;;;;;;56.97;34.15;;;2.90;1.00;;;;;;6261037;22;20222;-81